createdAt,value
2022-11-14T00:01:29.181Z,51.53
2022-11-14T00:04:14.383Z,52.15
2022-11-14T00:06:59.507Z,50.60
2022-11-14T00:09:44.452Z,53.78
2022-11-14T00:12:29.374Z,55.50
2022-11-14T00:15:14.885Z,57.05
2022-11-14T00:17:59.646Z,55.05
2022-11-14T00:20:48.172Z,53.75
2022-11-14T00:23:33.340Z,56.90
2022-11-14T00:26:18.199Z,57.65
2022-11-14T00:29:03.206Z,54.05
2022-11-14T00:31:48.022Z,56.42
2022-11-14T00:34:33.383Z,54.65
2022-11-14T00:37:18.264Z,56.25
2022-11-14T00:40:04.213Z,55.55
2022-11-14T00:42:49.169Z,56.50
2022-11-14T00:45:33.921Z,59.35
2022-11-14T00:48:18.938Z,55.67
2022-11-14T00:51:03.664Z,56.00
2022-11-14T00:53:48.629Z,55.63
2022-11-14T00:56:33.643Z,55.60
2022-11-14T00:59:18.603Z,56.35
2022-11-14T01:02:03.492Z,58.25
2022-11-14T01:04:48.505Z,57.55
2022-11-14T01:07:33.533Z,59.08
2022-11-14T01:10:18.938Z,56.92
2022-11-14T01:13:03.878Z,57.78
2022-11-14T01:15:49.787Z,62.13
2022-11-14T01:18:36.351Z,59.83
2022-11-14T01:21:21.460Z,62.92
2022-11-14T01:24:06.868Z,58.40
2022-11-14T01:26:55.033Z,58.30
2022-11-14T01:29:40.422Z,57.97
2022-11-14T01:32:26.656Z,62.67
2022-11-14T01:35:11.623Z,58.90
2022-11-14T01:37:56.464Z,59.38
2022-11-14T01:40:43.126Z,58.05
2022-11-14T01:43:33.956Z,58.95
2022-11-14T01:46:39.162Z,61.22
2022-11-14T01:49:29.630Z,57.47
2022-11-14T01:52:20.156Z,62.17
2022-11-14T01:55:08.654Z,58.10
2022-11-14T01:57:53.633Z,60.45
2022-11-14T02:00:38.788Z,57.13
2022-11-14T02:03:24.250Z,58.60
2022-11-14T02:06:14.080Z,60.90
2022-11-14T02:09:02.604Z,60.75
2022-11-14T02:11:48.410Z,57.83
2022-11-14T02:14:35.698Z,62.60
2022-11-14T02:17:30.027Z,59.08
2022-11-14T02:20:19.372Z,60.15
2022-11-14T02:23:04.698Z,61.92
2022-11-14T02:25:49.451Z,61.33
2022-11-14T02:28:34.439Z,63.00
2022-11-14T02:31:19.261Z,60.92
2022-11-14T02:34:04.098Z,60.03
2022-11-14T02:36:49.068Z,60.08
2022-11-14T02:39:33.957Z,62.00
2022-11-14T02:42:18.893Z,59.70
2022-11-14T02:45:04.401Z,61.22
2022-11-14T02:47:49.424Z,56.78
2022-11-14T02:50:34.610Z,59.38
2022-11-14T02:53:19.437Z,62.10
2022-11-14T02:56:04.579Z,57.65
2022-11-14T02:58:49.745Z,58.55
2022-11-14T03:01:34.790Z,59.63
2022-11-14T03:04:19.654Z,56.33
2022-11-14T03:07:04.633Z,60.83
2022-11-14T03:09:49.347Z,56.53
2022-11-14T03:12:34.222Z,58.92
2022-11-14T03:15:19.034Z,55.72
2022-11-14T03:18:03.960Z,57.33
2022-11-14T03:20:49.043Z,57.40
2022-11-14T03:23:34.363Z,56.15
2022-11-14T03:26:19.814Z,55.90
2022-11-14T03:29:04.879Z,56.92
2022-11-14T03:31:49.961Z,55.50
2022-11-14T03:34:34.843Z,54.78
2022-11-14T03:37:19.734Z,56.53
2022-11-14T03:40:04.973Z,57.97
2022-11-14T03:42:49.937Z,57.85
2022-11-14T03:45:37.322Z,57.05
2022-11-14T03:48:22.255Z,54.00
2022-11-14T03:51:07.381Z,54.47
2022-11-14T03:53:52.302Z,54.95
2022-11-14T03:56:37.712Z,57.03
2022-11-14T03:59:22.584Z,56.03
2022-11-14T04:02:07.544Z,56.42
2022-11-14T04:04:52.562Z,55.63
2022-11-14T04:07:37.473Z,54.47
2022-11-14T04:10:22.433Z,55.80
2022-11-14T04:13:08.102Z,58.63
2022-11-14T04:15:57.573Z,54.63
2022-11-14T04:18:42.760Z,51.55
2022-11-14T04:21:27.630Z,52.30
2022-11-14T04:24:12.502Z,52.05
2022-11-14T04:26:57.362Z,52.17
2022-11-14T04:29:42.264Z,56.08
2022-11-14T04:32:27.222Z,52.42
2022-11-14T04:35:11.999Z,53.85
2022-11-14T04:37:57.019Z,56.10
2022-11-14T04:40:48.534Z,53.53
2022-11-14T04:43:33.670Z,55.45
2022-11-14T04:46:18.669Z,54.88
2022-11-14T04:49:03.451Z,56.88
2022-11-14T04:51:49.985Z,54.10
2022-11-14T04:54:35.101Z,55.67
2022-11-14T04:57:20.030Z,56.63
2022-11-14T05:00:05.902Z,54.97
2022-11-14T05:02:51.141Z,55.92
2022-11-14T05:05:41.639Z,56.08
2022-11-14T05:08:27.123Z,40.67
2022-11-14T05:11:17.064Z,55.03
2022-11-14T05:14:01.937Z,53.60
2022-11-14T05:16:46.951Z,52.95
2022-11-14T05:19:31.853Z,52.55
2022-11-14T05:22:17.140Z,54.97
2022-11-14T05:25:02.246Z,54.58
2022-11-14T05:27:47.376Z,54.35
2022-11-14T05:30:32.845Z,54.50
2022-11-14T05:33:17.514Z,55.35
2022-11-14T05:36:10.790Z,57.75
2022-11-14T05:38:56.056Z,54.55
2022-11-14T05:41:40.999Z,55.45
2022-11-14T05:44:25.939Z,54.33
2022-11-14T05:47:10.784Z,58.28
2022-11-14T05:49:55.568Z,53.22
2022-11-14T05:52:40.536Z,55.92
2022-11-14T05:55:25.433Z,54.72
2022-11-14T05:58:10.418Z,56.40
2022-11-14T06:01:11.670Z,59.70
2022-11-14T06:03:57.185Z,57.97
2022-11-14T06:06:42.216Z,58.97
2022-11-14T06:09:27.849Z,55.42
2022-11-14T06:12:13.551Z,57.75
2022-11-14T06:15:21.890Z,54.28
2022-11-14T06:18:07.926Z,56.65
2022-11-14T06:20:53.373Z,58.90
2022-11-14T06:23:39.245Z,56.70
2022-11-14T06:26:30.498Z,53.58
2022-11-14T06:29:15.909Z,56.55
2022-11-14T06:32:01.081Z,55.45
2022-11-14T06:34:46.188Z,58.28
2022-11-14T06:37:33.653Z,59.30
2022-11-14T06:40:19.324Z,58.92
2022-11-14T06:43:04.318Z,56.47
2022-11-14T06:45:49.289Z,57.30
2022-11-14T06:48:34.495Z,57.10
2022-11-14T06:51:19.862Z,56.10
2022-11-14T06:54:04.907Z,56.65
2022-11-14T06:56:49.928Z,57.67
2022-11-14T06:59:34.820Z,56.47
2022-11-14T07:02:22.020Z,56.38
2022-11-14T07:05:07.269Z,55.85
2022-11-14T07:07:52.473Z,56.15
2022-11-14T07:10:37.389Z,57.85
2022-11-14T07:13:22.754Z,53.95
2022-11-14T07:16:07.850Z,59.70
2022-11-14T07:18:53.043Z,58.30
2022-11-14T07:21:38.135Z,55.90
2022-11-14T07:24:23.284Z,54.90
2022-11-14T07:27:10.985Z,58.67
2022-11-14T07:29:55.850Z,53.45
2022-11-14T07:32:40.990Z,54.55
2022-11-14T07:35:26.304Z,54.72
2022-11-14T07:38:11.205Z,54.85
2022-11-14T07:40:59.852Z,53.45
2022-11-14T07:43:45.602Z,53.83
2022-11-14T07:46:30.593Z,53.20
2022-11-14T07:49:15.646Z,54.75
2022-11-14T07:52:00.897Z,52.67
2022-11-14T07:54:45.738Z,53.28
2022-11-14T07:57:32.396Z,53.03
2022-11-14T08:00:19.632Z,53.47
2022-11-14T08:03:07.063Z,52.58
2022-11-14T08:05:52.073Z,50.40
2022-11-14T08:08:37.549Z,51.15
2022-11-14T08:11:42.372Z,48.83
2022-11-14T08:14:27.319Z,49.83
2022-11-14T08:17:12.418Z,51.65
2022-11-14T08:19:57.362Z,49.00
2022-11-14T08:22:42.271Z,49.83
2022-11-14T08:25:27.043Z,51.85
2022-11-14T08:28:11.889Z,49.35
2022-11-14T08:31:01.919Z,48.72
2022-11-14T08:33:49.819Z,48.37
2022-11-14T08:36:34.938Z,47.67
2022-11-14T08:39:19.944Z,46.15
2022-11-14T08:42:04.894Z,46.38
2022-11-14T08:44:52.112Z,46.58
2022-11-14T08:47:37.345Z,47.70
2022-11-14T08:50:22.714Z,44.10
2022-11-14T08:53:07.680Z,45.08
2022-11-14T08:55:52.580Z,45.38
2022-11-14T08:58:37.496Z,45.47
2022-11-14T09:01:22.455Z,42.72
2022-11-14T09:04:08.634Z,42.03
2022-11-14T09:06:53.711Z,42.88
2022-11-14T09:09:38.635Z,44.08
2022-11-14T09:12:23.569Z,43.15
2022-11-14T09:15:08.717Z,42.10
2022-11-14T09:17:55.200Z,43.38
2022-11-14T09:20:40.669Z,41.85
2022-11-14T09:23:26.076Z,40.40
2022-11-14T09:26:11.520Z,40.67
2022-11-14T09:28:56.296Z,41.00
2022-11-14T09:31:41.261Z,40.83
2022-11-14T09:34:26.067Z,40.17
2022-11-14T09:37:11.303Z,41.50
2022-11-14T09:39:56.880Z,42.88
2022-11-14T09:43:03.703Z,42.28
2022-11-14T09:45:52.500Z,38.85
2022-11-14T09:48:37.424Z,40.22
2022-11-14T09:51:25.224Z,40.28
2022-11-14T09:54:25.041Z,41.35
2022-11-14T09:57:17.985Z,38.38
2022-11-14T10:00:12.825Z,40.55
2022-11-14T10:03:03.330Z,39.30
2022-11-14T10:05:57.581Z,39.53
2022-11-14T10:09:00.742Z,36.78
2022-11-14T10:12:09.035Z,37.90
2022-11-14T10:15:01.526Z,38.75
2022-11-14T10:18:16.065Z,39.63
2022-11-14T10:21:16.425Z,37.55
2022-11-14T10:24:40.665Z,39.08
2022-11-14T10:27:27.762Z,37.15
2022-11-14T10:30:16.791Z,37.65
2022-11-14T10:33:13.302Z,37.50
2022-11-14T10:36:13.997Z,36.97
2022-11-14T10:39:14.073Z,36.42
2022-11-14T10:42:07.660Z,36.13
2022-11-14T10:45:15.629Z,38.15
2022-11-14T10:48:08.905Z,36.20
2022-11-14T10:51:28.989Z,36.17
2022-11-14T10:54:21.697Z,36.22
2022-11-14T10:57:19.144Z,33.60
2022-11-14T11:00:18.558Z,36.40
2022-11-14T11:03:03.795Z,32.70
2022-11-14T11:05:52.003Z,34.67
2022-11-14T11:09:01.799Z,35.70
2022-11-14T11:12:18.329Z,35.65
2022-11-14T11:15:25.741Z,34.53
2022-11-14T11:18:32.874Z,38.47
2022-11-14T11:21:21.108Z,36.47
2022-11-14T11:24:06.546Z,34.35
2022-11-14T11:27:25.659Z,36.03
2022-11-14T11:30:23.046Z,35.42
2022-11-14T11:33:24.288Z,34.40
2022-11-14T11:39:00.162Z,33.33
2022-11-14T11:42:08.763Z,31.35
2022-11-14T11:44:55.855Z,41.92
2022-11-14T11:47:42.069Z,37.42
2022-11-14T11:50:27.508Z,37.42
2022-11-14T11:53:34.900Z,32.78
2022-11-14T11:56:25.570Z,35.45
2022-11-14T11:59:38.541Z,33.07
2022-11-14T12:02:26.072Z,32.78
2022-11-14T12:05:18.620Z,32.55
2022-11-14T12:08:09.605Z,33.47
2022-11-14T12:10:56.526Z,31.13
2022-11-14T12:13:53.808Z,31.98
2022-11-14T12:17:33.054Z,33.17
2022-11-14T12:20:51.493Z,33.55
2022-11-14T12:24:09.345Z,30.95
2022-11-14T12:27:10.476Z,33.47
2022-11-14T12:30:08.830Z,31.45
2022-11-14T12:33:19.144Z,31.15
2022-11-14T12:36:12.578Z,32.38
2022-11-14T12:38:59.075Z,34.63
2022-11-14T12:41:43.970Z,31.25
2022-11-14T12:44:28.856Z,31.88
2022-11-14T12:47:16.065Z,31.75
2022-11-14T12:50:02.579Z,30.02
2022-11-14T12:52:50.232Z,33.22
2022-11-14T12:55:35.388Z,33.15
2022-11-14T12:58:32.518Z,32.45
2022-11-14T13:01:40.791Z,30.40
2022-11-14T13:04:56.671Z,31.65
2022-11-14T13:07:59.161Z,31.75
2022-11-14T13:10:44.165Z,31.95
2022-11-14T13:13:48.506Z,30.42
2022-11-14T13:16:52.493Z,29.92
2022-11-14T13:20:04.918Z,29.23
2022-11-14T13:22:50.082Z,29.40
2022-11-14T13:25:35.009Z,28.30
2022-11-14T13:28:38.326Z,28.92
2022-11-14T13:31:25.539Z,28.85
2022-11-14T13:34:45.940Z,28.40
2022-11-14T13:37:42.401Z,29.57
2022-11-14T13:40:44.856Z,29.20
2022-11-14T13:43:57.200Z,30.17
2022-11-14T13:47:04.126Z,30.88
2022-11-14T13:50:00.500Z,26.80
2022-11-14T13:52:48.113Z,29.13
2022-11-14T13:55:53.402Z,28.85
2022-11-14T13:58:56.759Z,27.70
2022-11-14T14:01:55.263Z,28.63
2022-11-14T14:04:50.610Z,27.65
2022-11-14T14:07:57.136Z,26.20
2022-11-14T14:10:57.063Z,25.55
2022-11-14T14:14:32.182Z,24.15
2022-11-14T14:17:43.405Z,25.20
2022-11-14T14:20:37.158Z,24.92
2022-11-14T14:23:43.930Z,27.67
2022-11-14T14:27:16.248Z,26.73
2022-11-14T14:30:14.330Z,24.75
2022-11-14T14:33:08.393Z,25.42
2022-11-14T14:35:53.840Z,26.73
2022-11-14T14:38:38.973Z,25.23
2022-11-14T14:41:24.074Z,25.80
2022-11-14T14:44:39.264Z,24.98
2022-11-14T14:47:41.782Z,23.35
2022-11-14T14:50:40.608Z,24.15
2022-11-14T14:53:29.929Z,25.38
2022-11-14T14:56:20.828Z,24.45
2022-11-14T14:59:17.267Z,23.55
2022-11-14T15:02:02.538Z,24.48
2022-11-14T15:04:47.378Z,22.65
2022-11-14T15:07:32.495Z,24.70
2022-11-14T15:10:26.314Z,23.77
2022-11-14T15:13:15.657Z,24.00
2022-11-14T15:16:03.090Z,23.40
2022-11-14T15:18:50.562Z,23.60
2022-11-14T15:21:35.646Z,24.38
2022-11-14T15:24:23.486Z,24.33
2022-11-14T15:27:16.715Z,25.65
2022-11-14T15:30:07.971Z,24.65
2022-11-14T15:32:55.434Z,24.88
2022-11-14T15:35:41.133Z,23.77
2022-11-14T15:38:43.591Z,23.50
2022-11-14T15:41:31.290Z,24.92
2022-11-14T15:44:33.708Z,25.27
2022-11-14T15:47:22.234Z,24.42
2022-11-14T15:50:13.122Z,25.15
2022-11-14T15:53:01.228Z,25.83
2022-11-14T15:55:46.498Z,28.42
2022-11-14T15:58:32.818Z,28.35
2022-11-14T16:01:23.825Z,27.50
2022-11-14T16:07:02.646Z,25.35
2022-11-14T16:09:48.177Z,25.35
2022-11-14T16:12:33.317Z,25.08
2022-11-14T16:15:20.251Z,24.60
2022-11-14T16:18:06.239Z,24.88
2022-11-14T16:20:51.813Z,25.10
2022-11-14T16:23:36.979Z,23.90
2022-11-14T16:26:21.892Z,25.92
2022-11-14T16:29:07.810Z,25.50
2022-11-14T16:31:53.798Z,26.15
2022-11-14T16:34:38.806Z,28.27
2022-11-14T16:37:25.130Z,28.48
2022-11-14T16:40:23.111Z,26.88
2022-11-14T16:43:13.232Z,28.13
2022-11-14T16:45:58.044Z,26.77
2022-11-14T16:48:42.960Z,27.05
2022-11-14T16:54:33.257Z,28.23
2022-11-14T16:57:18.253Z,27.80
2022-11-14T17:00:12.154Z,28.08
2022-11-14T17:02:57.467Z,26.23
2022-11-14T17:05:52.119Z,28.67
2022-11-14T17:08:37.211Z,27.70
2022-11-14T17:11:22.850Z,27.73
2022-11-14T17:14:08.298Z,25.85
2022-11-14T17:16:53.210Z,27.30
2022-11-14T17:19:45.544Z,25.95
2022-11-14T17:22:30.416Z,28.67
2022-11-14T17:25:15.297Z,27.88
2022-11-14T17:28:00.669Z,27.98
2022-11-14T17:30:45.715Z,30.42
2022-11-14T17:33:30.952Z,28.20
2022-11-14T17:36:16.190Z,27.42
2022-11-14T17:39:01.309Z,29.25
2022-11-14T17:41:46.775Z,30.13
2022-11-14T17:44:31.559Z,29.15
2022-11-14T17:47:16.523Z,28.70
2022-11-14T17:50:01.388Z,32.92
2022-11-14T17:52:46.247Z,32.97
2022-11-14T17:55:31.265Z,29.58
2022-11-14T17:58:16.215Z,27.42
2022-11-14T18:01:01.351Z,28.25
2022-11-14T18:03:46.759Z,27.20
2022-11-14T18:06:33.346Z,27.90
2022-11-14T18:09:18.320Z,29.27
2022-11-14T18:12:03.393Z,28.88
2022-11-14T18:14:48.861Z,29.42
2022-11-14T18:17:34.083Z,27.60
2022-11-14T18:20:18.957Z,28.52
2022-11-14T18:23:03.829Z,27.98
2022-11-14T18:25:48.715Z,28.65
2022-11-14T18:28:33.862Z,28.75
2022-11-14T18:31:19.344Z,29.75
2022-11-14T18:34:05.273Z,28.08
2022-11-14T18:36:50.301Z,29.27
2022-11-14T18:39:35.281Z,30.73
2022-11-14T18:42:20.096Z,30.58
2022-11-14T18:45:05.919Z,32.25
2022-11-14T18:47:51.122Z,33.13
2022-11-14T18:50:36.610Z,30.45
2022-11-14T18:53:21.816Z,31.20
2022-11-14T18:56:09.938Z,32.15
2022-11-14T18:58:56.394Z,32.42
2022-11-14T19:01:41.763Z,33.55
2022-11-14T19:04:27.031Z,32.65
2022-11-14T19:07:12.105Z,33.00
2022-11-14T19:09:57.093Z,30.30
2022-11-14T19:12:42.671Z,31.08
2022-11-14T19:15:27.739Z,30.45
2022-11-14T19:18:12.698Z,31.85
2022-11-14T19:21:04.049Z,30.65
2022-11-14T19:23:50.479Z,32.22
2022-11-14T19:26:35.809Z,31.95
2022-11-14T19:29:21.034Z,31.83
2022-11-14T19:32:06.419Z,31.83
2022-11-14T19:34:51.347Z,30.50
2022-11-14T19:37:36.384Z,31.45
2022-11-14T19:40:21.506Z,31.65
2022-11-14T19:43:07.274Z,33.40
2022-11-14T19:45:52.273Z,32.00
2022-11-14T19:48:38.543Z,31.05
2022-11-14T19:51:24.501Z,31.25
2022-11-14T19:54:11.265Z,32.05
2022-11-14T19:56:56.577Z,31.23
2022-11-14T19:59:41.499Z,29.23
2022-11-14T20:02:28.517Z,31.48
2022-11-14T20:05:13.529Z,31.65
2022-11-14T20:07:58.561Z,32.33
2022-11-14T20:10:54.651Z,30.55
2022-11-14T20:13:42.264Z,31.63
2022-11-14T20:16:31.378Z,30.80
2022-11-14T20:19:16.944Z,32.60
2022-11-14T20:22:02.233Z,30.70
2022-11-14T20:24:47.351Z,33.10
2022-11-14T20:27:32.230Z,31.67
2022-11-14T20:30:17.246Z,32.40
2022-11-14T20:33:02.190Z,32.45
2022-11-14T20:35:47.835Z,31.63
2022-11-14T20:38:35.917Z,31.30
2022-11-14T20:41:21.793Z,32.22
2022-11-14T20:44:07.358Z,32.92
2022-11-14T20:46:55.380Z,32.30
2022-11-14T20:49:40.277Z,32.88
2022-11-14T20:52:25.501Z,32.03
2022-11-14T20:55:11.875Z,33.05
2022-11-14T20:57:57.145Z,32.35
2022-11-14T21:00:42.379Z,31.60
2022-11-14T21:03:27.445Z,34.28
2022-11-14T21:06:13.659Z,33.72
2022-11-14T21:08:58.923Z,35.13
2022-11-14T21:11:44.156Z,31.02
2022-11-14T21:14:29.899Z,32.63
2022-11-14T21:17:14.926Z,32.67
2022-11-14T21:19:59.931Z,31.85
2022-11-14T21:22:44.950Z,32.45
2022-11-14T21:25:30.985Z,33.22
2022-11-14T21:28:17.685Z,33.05
2022-11-14T21:31:33.230Z,31.50
2022-11-14T21:34:21.066Z,31.13
2022-11-14T21:37:05.843Z,31.83
2022-11-14T21:39:50.846Z,35.17
2022-11-14T21:42:35.819Z,33.90
2022-11-14T21:45:20.916Z,35.63
2022-11-14T21:48:05.984Z,35.03
2022-11-14T21:50:50.809Z,35.63
2022-11-14T21:53:36.552Z,35.35
2022-11-14T21:56:24.454Z,36.72
2022-11-14T21:59:14.058Z,37.40
2022-11-14T22:02:18.572Z,35.73
2022-11-14T22:05:03.766Z,34.35
2022-11-14T22:07:48.906Z,34.33
2022-11-14T22:10:33.912Z,35.78
2022-11-14T22:13:19.452Z,34.55
2022-11-14T22:16:10.255Z,33.53
2022-11-14T22:19:00.499Z,32.78
2022-11-14T22:21:49.811Z,34.55
2022-11-14T22:24:35.542Z,33.75
2022-11-14T22:27:20.490Z,33.53
2022-11-14T22:30:05.759Z,35.30
2022-11-14T22:32:50.632Z,32.15
2022-11-14T22:35:35.671Z,35.25
2022-11-14T22:38:20.613Z,35.72
2022-11-14T22:41:08.194Z,36.85
2022-11-14T22:43:53.461Z,34.88
2022-11-14T22:46:39.027Z,35.85
2022-11-14T22:49:23.821Z,36.33
2022-11-14T22:52:08.866Z,36.10
2022-11-14T22:54:53.765Z,36.15
2022-11-14T22:57:38.727Z,35.13
2022-11-14T23:00:23.510Z,34.25
2022-11-14T23:03:08.525Z,36.75
2022-11-14T23:05:53.417Z,34.80
2022-11-14T23:08:39.165Z,34.75
2022-11-14T23:11:29.691Z,36.97
2022-11-14T23:14:14.811Z,36.27
2022-11-14T23:16:59.820Z,36.45
2022-11-14T23:19:44.764Z,37.15
2022-11-14T23:22:29.522Z,38.00
2022-11-14T23:25:14.492Z,35.22
2022-11-14T23:27:59.415Z,38.40
2022-11-14T23:30:44.369Z,37.47
2022-11-14T23:33:29.806Z,36.10
2022-11-14T23:36:15.425Z,37.08
2022-11-14T23:39:00.449Z,36.50
2022-11-14T23:41:45.358Z,36.83
2022-11-14T23:44:30.548Z,38.72
2022-11-14T23:47:15.346Z,38.20
2022-11-14T23:50:00.344Z,36.90
2022-11-14T23:52:45.184Z,36.60
2022-11-14T23:55:30.120Z,37.97
2022-11-14T23:58:15.090Z,37.83
